CES5158 ZPPP-ZSHC
Flight info
| Callsign | CES5158 |
|---|---|
| Flight time | N/A |
| Altitude | 35100 |
| Route | NOD9Z NODIB W137 LPS A581 WHA R343 UPLEL W95 SAPIN A470 IGRAT IGR81A |
| Aircraft | A321/M-V/N |
Departure
| Time | N/A |
|---|---|
| Airport | Kunming Changshui International Airport (ZPPP) |
Arrival
| Time | 2026-05-04 15:08 |
|---|---|
| Airport | Hangzhou Xiaoshan International Airport (ZSHC) |
| Time | Latitude | Longitude | Altitude | Speed | Heading |
|---|---|---|---|---|---|
| 2026-05-04 12:50 | 25.46067 | 103.62486 | 24812 ft | 466 kts | 45° |
| 2026-05-04 12:50 | 25.48178 | 103.65225 | 25066 ft | 468 kts | 45° |
| 2026-05-04 12:50 | 25.50291 | 103.67972 | 25314 ft | 471 kts | 45° |
| 2026-05-04 12:51 | 25.52423 | 103.70744 | 25564 ft | 473 kts | 45° |
| 2026-05-04 12:51 | 25.54563 | 103.73522 | 25801 ft | 475 kts | 45° |
| 2026-05-04 12:51 | 25.56725 | 103.76325 | 26040 ft | 478 kts | 45° |
| 2026-05-04 12:51 | 25.58886 | 103.79130 | 26293 ft | 480 kts | 45° |
| 2026-05-04 12:52 | 25.61050 | 103.81944 | 26542 ft | 482 kts | 45° |
| 2026-05-04 12:52 | 25.63233 | 103.84785 | 26786 ft | 484 kts | 44° |
| 2026-05-04 12:52 | 25.65422 | 103.87631 | 27027 ft | 487 kts | 44° |
| 2026-05-04 12:52 | 25.67626 | 103.90499 | 27276 ft | 489 kts | 44° |
| 2026-05-04 12:53 | 25.69834 | 103.93379 | 27528 ft | 491 kts | 44° |
| 2026-05-04 12:53 | 25.72042 | 103.96262 | 27748 ft | 493 kts | 44° |
| 2026-05-04 12:53 | 25.74266 | 103.99169 | 27967 ft | 495 kts | 44° |
| 2026-05-04 12:53 | 25.76498 | 104.02087 | 28200 ft | 497 kts | 44° |
| 2026-05-04 12:54 | 25.78711 | 104.04978 | 28406 ft | 499 kts | 44° |
| 2026-05-04 12:54 | 25.80793 | 104.08090 | 28615 ft | 506 kts | 52° |
| 2026-05-04 12:54 | 25.82727 | 104.11377 | 28842 ft | 508 kts | 52° |
| 2026-05-04 12:54 | 25.84657 | 104.14664 | 29052 ft | 510 kts | 52° |
| 2026-05-04 12:55 | 25.86595 | 104.17972 | 29294 ft | 512 kts | 52° |
| 2026-05-04 12:55 | 25.88543 | 104.21296 | 29526 ft | 514 kts | 52° |
| 2026-05-04 12:55 | 25.90497 | 104.24630 | 29765 ft | 515 kts | 52° |
| 2026-05-04 12:55 | 25.92447 | 104.27959 | 30096 ft | 514 kts | 52° |
| 2026-05-04 12:56 | 25.94403 | 104.31299 | 30375 ft | 514 kts | 52° |
| 2026-05-04 12:56 | 25.96350 | 104.34625 | 30633 ft | 514 kts | 52° |
| 2026-05-04 12:56 | 25.98295 | 104.37957 | 30916 ft | 513 kts | 52° |
| 2026-05-04 12:56 | 26.00236 | 104.41285 | 31169 ft | 512 kts | 52° |
| 2026-05-04 12:57 | 26.02299 | 104.44500 | 31440 ft | 506 kts | 44° |
| 2026-05-04 12:57 | 26.04696 | 104.47324 | 31676 ft | 498 kts | 35° |
| 2026-05-04 12:57 | 26.07317 | 104.49792 | 31924 ft | 494 kts | 33° |
| 2026-05-04 12:57 | 26.09959 | 104.52233 | 32186 ft | 493 kts | 33° |
| 2026-05-04 12:58 | 26.12604 | 104.54680 | 32465 ft | 492 kts | 33° |
| 2026-05-04 12:58 | 26.15201 | 104.57088 | 32737 ft | 492 kts | 33° |
| 2026-05-04 12:58 | 26.17862 | 104.59560 | 33005 ft | 491 kts | 33° |
| 2026-05-04 12:58 | 26.20446 | 104.61962 | 33258 ft | 491 kts | 32° |
| 2026-05-04 12:59 | 26.23103 | 104.64436 | 33530 ft | 490 kts | 32° |
| 2026-05-04 12:59 | 26.25718 | 104.66874 | 33784 ft | 490 kts | 32° |
| 2026-05-04 12:59 | 26.27445 | 104.68483 | 33939 ft | 490 kts | 32° |
| 2026-05-04 12:59 | 26.30900 | 104.71701 | 34251 ft | 489 kts | 32° |
| 2026-05-04 13:00 | 26.33519 | 104.74142 | 34452 ft | 489 kts | 32° |
| 2026-05-04 13:00 | 26.36124 | 104.76570 | 34640 ft | 488 kts | 32° |
| 2026-05-04 13:00 | 26.38725 | 104.78998 | 34857 ft | 487 kts | 32° |
| 2026-05-04 13:00 | 26.40444 | 104.80605 | 34993 ft | 487 kts | 32° |
| 2026-05-04 13:01 | 26.43919 | 104.83857 | 35178 ft | 487 kts | 32° |
| 2026-05-04 13:01 | 26.48214 | 104.87881 | 35201 ft | 483 kts | 32° |
| 2026-05-04 13:02 | 26.53356 | 104.92699 | 35195 ft | 482 kts | 32° |
| 2026-05-04 13:02 | 26.58500 | 104.97525 | 35193 ft | 482 kts | 32° |
| 2026-05-04 13:03 | 26.63422 | 105.02668 | 35193 ft | 494 kts | 44° |
| 2026-05-04 13:03 | 26.66929 | 105.09405 | 35186 ft | 509 kts | 60° |
| 2026-05-04 13:04 | 26.69809 | 105.16647 | 35167 ft | 509 kts | 59° |
| 2026-05-04 13:04 | 26.72724 | 105.23889 | 35179 ft | 510 kts | 59° |
| 2026-05-04 13:05 | 26.75619 | 105.31072 | 35183 ft | 510 kts | 60° |
| 2026-05-04 13:05 | 26.78543 | 105.38358 | 35186 ft | 510 kts | 60° |
| 2026-05-04 13:06 | 26.81423 | 105.45568 | 35197 ft | 511 kts | 60° |
| 2026-05-04 13:06 | 26.84318 | 105.52841 | 35201 ft | 511 kts | 60° |
| 2026-05-04 13:07 | 26.87216 | 105.60145 | 35204 ft | 512 kts | 60° |
| 2026-05-04 13:07 | 26.90111 | 105.67428 | 35202 ft | 512 kts | 60° |
| 2026-05-04 13:08 | 26.93005 | 105.74710 | 35207 ft | 512 kts | 60° |
| 2026-05-04 13:08 | 26.95892 | 105.82002 | 35207 ft | 512 kts | 60° |
| 2026-05-04 13:09 | 26.98774 | 105.89305 | 35211 ft | 513 kts | 60° |
| 2026-05-04 13:09 | 27.01643 | 105.96601 | 35219 ft | 513 kts | 60° |
| 2026-05-04 13:10 | 27.04534 | 106.03922 | 35225 ft | 513 kts | 59° |
| 2026-05-04 13:10 | 27.07670 | 106.11079 | 35225 ft | 510 kts | 55° |
| 2026-05-04 13:11 | 27.11011 | 106.18099 | 35230 ft | 510 kts | 55° |
| 2026-05-04 13:11 | 27.14329 | 106.25154 | 35224 ft | 510 kts | 56° |
| 2026-05-04 13:12 | 27.17564 | 106.32269 | 35226 ft | 511 kts | 57° |
| 2026-05-04 13:12 | 27.20781 | 106.39406 | 35220 ft | 511 kts | 56° |
| 2026-05-04 13:13 | 27.23979 | 106.46469 | 35228 ft | 511 kts | 56° |
| 2026-05-04 13:13 | 27.27205 | 106.53573 | 35211 ft | 510 kts | 56° |
| 2026-05-04 13:14 | 27.30431 | 106.60685 | 35224 ft | 510 kts | 56° |
| 2026-05-04 13:14 | 27.33655 | 106.67809 | 35234 ft | 511 kts | 56° |
| 2026-05-04 13:15 | 27.36866 | 106.74933 | 35209 ft | 510 kts | 56° |
| 2026-05-04 13:15 | 27.40067 | 106.82069 | 35210 ft | 510 kts | 56° |
| 2026-05-04 13:16 | 27.43264 | 106.89215 | 35217 ft | 511 kts | 56° |
| 2026-05-04 13:16 | 27.46450 | 106.96356 | 35217 ft | 511 kts | 56° |
| 2026-05-04 13:17 | 27.49643 | 107.03500 | 35216 ft | 510 kts | 56° |
| 2026-05-04 13:17 | 27.52871 | 107.10606 | 35212 ft | 510 kts | 56° |
| 2026-05-04 13:18 | 27.56104 | 107.17723 | 35212 ft | 510 kts | 56° |
| 2026-05-04 13:18 | 27.59319 | 107.24859 | 35213 ft | 510 kts | 56° |
| 2026-05-04 13:19 | 27.62533 | 107.31995 | 35204 ft | 510 kts | 56° |
| 2026-05-04 13:19 | 27.65713 | 107.39078 | 35189 ft | 509 kts | 56° |
| 2026-05-04 13:20 | 27.68920 | 107.46213 | 35189 ft | 509 kts | 56° |
| 2026-05-04 13:20 | 27.72119 | 107.53345 | 35185 ft | 510 kts | 56° |
| 2026-05-04 13:21 | 27.75311 | 107.60491 | 35187 ft | 510 kts | 56° |
| 2026-05-04 13:21 | 27.78509 | 107.67650 | 35184 ft | 510 kts | 56° |
| 2026-05-04 13:22 | 27.81708 | 107.74830 | 35189 ft | 511 kts | 56° |
| 2026-05-04 13:22 | 27.84908 | 107.81986 | 35185 ft | 511 kts | 56° |
| 2026-05-04 13:23 | 27.88176 | 107.89126 | 35176 ft | 511 kts | 55° |
| 2026-05-04 13:23 | 27.91441 | 107.96198 | 35172 ft | 511 kts | 55° |
| 2026-05-04 13:24 | 27.94730 | 108.03384 | 35174 ft | 512 kts | 56° |
| 2026-05-04 13:24 | 27.97962 | 108.10514 | 35174 ft | 513 kts | 56° |
| 2026-05-04 13:25 | 28.02845 | 108.21302 | 35184 ft | 513 kts | 56° |
| 2026-05-04 13:25 | 28.06104 | 108.28493 | 35175 ft | 513 kts | 56° |
| 2026-05-04 13:26 | 28.09355 | 108.35680 | 35156 ft | 513 kts | 56° |
| 2026-05-04 13:26 | 28.12609 | 108.42893 | 35175 ft | 515 kts | 56° |
| 2026-05-04 13:27 | 28.15862 | 108.50129 | 35160 ft | 515 kts | 56° |
| 2026-05-04 13:27 | 28.19121 | 108.57393 | 35157 ft | 517 kts | 56° |
| 2026-05-04 13:28 | 28.22377 | 108.64642 | 35158 ft | 518 kts | 56° |
| 2026-05-04 13:28 | 28.25645 | 108.71925 | 35172 ft | 519 kts | 56° |
| 2026-05-04 13:29 | 28.28917 | 108.79236 | 35176 ft | 519 kts | 56° |
| 2026-05-04 13:29 | 28.32184 | 108.86558 | 35164 ft | 520 kts | 56° |
| 2026-05-04 13:30 | 28.35447 | 108.93883 | 35162 ft | 520 kts | 56° |
| 2026-05-04 13:30 | 28.38701 | 109.01201 | 35159 ft | 521 kts | 56° |
| 2026-05-04 13:31 | 28.41969 | 109.08568 | 35158 ft | 522 kts | 57° |
| 2026-05-04 13:31 | 28.45223 | 109.15918 | 35160 ft | 522 kts | 57° |
| 2026-05-04 13:32 | 28.48482 | 109.23299 | 35164 ft | 523 kts | 57° |
| 2026-05-04 13:32 | 28.51736 | 109.30707 | 35162 ft | 524 kts | 57° |
| 2026-05-04 13:33 | 28.54977 | 109.38099 | 35164 ft | 524 kts | 57° |
| 2026-05-04 13:33 | 28.58184 | 109.45544 | 35160 ft | 528 kts | 62° |
| 2026-05-04 13:34 | 28.60872 | 109.53341 | 35168 ft | 530 kts | 63° |
| 2026-05-04 13:34 | 28.63546 | 109.61168 | 35151 ft | 530 kts | 63° |
| 2026-05-04 13:35 | 28.67598 | 109.72883 | 35159 ft | 529 kts | 62° |
| 2026-05-04 13:36 | 28.70409 | 109.80631 | 35161 ft | 529 kts | 62° |
| 2026-05-04 13:36 | 28.73228 | 109.88376 | 35161 ft | 528 kts | 62° |
| 2026-05-04 13:37 | 28.76016 | 109.96134 | 35159 ft | 529 kts | 62° |
| 2026-05-04 13:37 | 28.78770 | 110.03919 | 35164 ft | 529 kts | 62° |
| 2026-05-04 13:38 | 28.81519 | 110.11713 | 35164 ft | 529 kts | 63° |
| 2026-05-04 13:38 | 28.84273 | 110.19473 | 35164 ft | 529 kts | 63° |
| 2026-05-04 13:39 | 28.87023 | 110.27216 | 35157 ft | 529 kts | 63° |
| 2026-05-04 13:39 | 28.89786 | 110.35013 | 35157 ft | 529 kts | 63° |
| 2026-05-04 13:40 | 28.92541 | 110.42809 | 35155 ft | 529 kts | 63° |
| 2026-05-04 13:40 | 28.95277 | 110.50596 | 35156 ft | 529 kts | 63° |
| 2026-05-04 13:41 | 28.98017 | 110.58398 | 35157 ft | 530 kts | 63° |
| 2026-05-04 13:41 | 29.00752 | 110.66215 | 35151 ft | 530 kts | 63° |
| 2026-05-04 13:42 | 29.04851 | 110.77943 | 35148 ft | 529 kts | 63° |
| 2026-05-04 13:42 | 29.07619 | 110.85721 | 35146 ft | 529 kts | 63° |
| 2026-05-04 13:43 | 29.10403 | 110.93511 | 35156 ft | 529 kts | 63° |
| 2026-05-04 13:43 | 29.13165 | 111.01312 | 35157 ft | 529 kts | 63° |
| 2026-05-04 13:44 | 29.15888 | 111.09076 | 35154 ft | 529 kts | 63° |
| 2026-05-04 13:44 | 29.18617 | 111.16885 | 35151 ft | 529 kts | 64° |
| 2026-05-04 13:45 | 29.21350 | 111.24678 | 35150 ft | 528 kts | 63° |
| 2026-05-04 13:45 | 29.24095 | 111.32474 | 35152 ft | 527 kts | 64° |
| 2026-05-04 13:46 | 29.26821 | 111.40276 | 35147 ft | 527 kts | 64° |
| 2026-05-04 13:46 | 29.29526 | 111.48065 | 35129 ft | 527 kts | 64° |
| 2026-05-04 13:47 | 29.32227 | 111.55868 | 35130 ft | 526 kts | 64° |
| 2026-05-04 13:47 | 29.34974 | 111.63657 | 35128 ft | 524 kts | 59° |
| 2026-05-04 13:48 | 29.38707 | 111.70710 | 35131 ft | 516 kts | 51° |
| 2026-05-04 13:48 | 29.42663 | 111.77600 | 35129 ft | 517 kts | 51° |
| 2026-05-04 13:49 | 29.46598 | 111.84497 | 35134 ft | 517 kts | 51° |
| 2026-05-04 13:49 | 29.50529 | 111.91391 | 35137 ft | 517 kts | 51° |
| 2026-05-04 13:50 | 29.53803 | 111.97139 | 35140 ft | 517 kts | 51° |
| 2026-05-04 13:50 | 29.57740 | 112.04043 | 35139 ft | 516 kts | 51° |
| 2026-05-04 13:51 | 29.61651 | 112.10927 | 35137 ft | 516 kts | 51° |
| 2026-05-04 13:51 | 29.65567 | 112.17833 | 35136 ft | 516 kts | 51° |
| 2026-05-04 13:52 | 29.71438 | 112.28218 | 35142 ft | 516 kts | 52° |
| 2026-05-04 13:53 | 29.75345 | 112.35140 | 35143 ft | 516 kts | 52° |
| 2026-05-04 13:53 | 29.79250 | 112.42102 | 35139 ft | 516 kts | 52° |
| 2026-05-04 13:54 | 29.85066 | 112.52538 | 35137 ft | 516 kts | 52° |
| 2026-05-04 13:55 | 29.90875 | 112.62940 | 35141 ft | 516 kts | 52° |
| 2026-05-04 13:55 | 29.96689 | 112.73382 | 35144 ft | 516 kts | 52° |
| 2026-05-04 13:56 | 30.00555 | 112.80355 | 35144 ft | 516 kts | 52° |
| 2026-05-04 13:57 | 30.06349 | 112.90820 | 35132 ft | 515 kts | 52° |
| 2026-05-04 13:58 | 30.14067 | 113.04788 | 35141 ft | 515 kts | 52° |
| 2026-05-04 13:58 | 30.19835 | 113.15248 | 35139 ft | 515 kts | 53° |
| 2026-05-04 13:59 | 30.23679 | 113.22239 | 35139 ft | 515 kts | 52° |
| 2026-05-04 14:00 | 30.29537 | 113.32653 | 35144 ft | 514 kts | 52° |
| 2026-05-04 14:00 | 30.35384 | 113.43048 | 35141 ft | 514 kts | 52° |
| 2026-05-04 14:01 | 30.39270 | 113.50007 | 35142 ft | 514 kts | 52° |
| 2026-05-04 14:02 | 30.45068 | 113.60437 | 35138 ft | 513 kts | 52° |
| 2026-05-04 14:02 | 30.48936 | 113.67400 | 35140 ft | 513 kts | 52° |
| 2026-05-04 14:03 | 30.52777 | 113.74305 | 35140 ft | 513 kts | 52° |
| 2026-05-04 14:03 | 30.56641 | 113.81277 | 35139 ft | 513 kts | 53° |
| 2026-05-04 14:04 | 30.62407 | 113.91717 | 35149 ft | 512 kts | 53° |
| 2026-05-04 14:04 | 30.66256 | 113.98697 | 35147 ft | 512 kts | 53° |
| 2026-05-04 14:05 | 30.72018 | 114.09147 | 35149 ft | 512 kts | 53° |
| 2026-05-04 14:06 | 30.75854 | 114.16116 | 35152 ft | 512 kts | 53° |
| 2026-05-04 14:06 | 30.79218 | 114.23434 | 35150 ft | 517 kts | 66° |
| 2026-05-04 14:07 | 30.81801 | 114.31260 | 35150 ft | 518 kts | 66° |
| 2026-05-04 14:07 | 30.84344 | 114.39070 | 35146 ft | 518 kts | 67° |
| 2026-05-04 14:08 | 30.86855 | 114.46939 | 35144 ft | 518 kts | 67° |
| 2026-05-04 14:08 | 30.89378 | 114.54801 | 35147 ft | 518 kts | 66° |
| 2026-05-04 14:09 | 30.93217 | 114.66543 | 35148 ft | 517 kts | 66° |
| 2026-05-04 14:10 | 30.97025 | 114.78319 | 35150 ft | 517 kts | 67° |
| 2026-05-04 14:10 | 30.99539 | 114.86165 | 35154 ft | 517 kts | 67° |
| 2026-05-04 14:11 | 31.02053 | 114.94002 | 35158 ft | 517 kts | 67° |
| 2026-05-04 14:11 | 31.05828 | 115.05783 | 35151 ft | 517 kts | 67° |
| 2026-05-04 14:12 | 31.08314 | 115.13596 | 35157 ft | 517 kts | 67° |
| 2026-05-04 14:13 | 31.12066 | 115.25398 | 35168 ft | 517 kts | 67° |
| 2026-05-04 14:13 | 31.14564 | 115.33250 | 35161 ft | 514 kts | 67° |
| 2026-05-04 14:14 | 31.17107 | 115.41074 | 35166 ft | 516 kts | 66° |
| 2026-05-04 14:14 | 31.20921 | 115.52821 | 35179 ft | 516 kts | 67° |
| 2026-05-04 14:15 | 31.25974 | 115.68552 | 35189 ft | 516 kts | 66° |
| 2026-05-04 14:16 | 31.29680 | 115.80119 | 35183 ft | 515 kts | 67° |
| 2026-05-04 14:17 | 31.33440 | 115.91907 | 35178 ft | 516 kts | 66° |
| 2026-05-04 14:18 | 31.37287 | 116.03660 | 35166 ft | 515 kts | 66° |
| 2026-05-04 14:19 | 31.42389 | 116.19304 | 35156 ft | 515 kts | 66° |
| 2026-05-04 14:19 | 31.44925 | 116.27147 | 35150 ft | 515 kts | 66° |
| 2026-05-04 14:20 | 31.47451 | 116.35005 | 35144 ft | 515 kts | 66° |
| 2026-05-04 14:20 | 31.49976 | 116.42853 | 35144 ft | 514 kts | 66° |
| 2026-05-04 14:21 | 31.53749 | 116.54631 | 35129 ft | 514 kts | 66° |
| 2026-05-04 14:21 | 31.56262 | 116.62478 | 35128 ft | 514 kts | 66° |
| 2026-05-04 14:22 | 31.58772 | 116.70321 | 35133 ft | 514 kts | 66° |
| 2026-05-04 14:22 | 31.61257 | 116.78121 | 35125 ft | 514 kts | 67° |
| 2026-05-04 14:23 | 31.63478 | 116.86129 | 35105 ft | 516 kts | 81° |
| 2026-05-04 14:23 | 31.63620 | 116.90329 | 35106 ft | 515 kts | 97° |
| 2026-05-04 14:24 | 31.62353 | 116.98561 | 35102 ft | 514 kts | 103° |
| 2026-05-04 14:24 | 31.60965 | 117.06748 | 35105 ft | 515 kts | 103° |
| 2026-05-04 14:25 | 31.59572 | 117.14980 | 35111 ft | 516 kts | 103° |
| 2026-05-04 14:25 | 31.57478 | 117.27367 | 35110 ft | 517 kts | 103° |
| 2026-05-04 14:26 | 31.56071 | 117.35632 | 35115 ft | 517 kts | 103° |
| 2026-05-04 14:26 | 31.54654 | 117.43908 | 35118 ft | 518 kts | 103° |
| 2026-05-04 14:27 | 31.53229 | 117.52198 | 35119 ft | 518 kts | 103° |
| 2026-05-04 14:27 | 31.52518 | 117.56336 | 34925 ft | 519 kts | 103° |
| 2026-05-04 14:27 | 31.51804 | 117.60482 | 34502 ft | 518 kts | 103° |
| 2026-05-04 14:28 | 31.51090 | 117.64623 | 33873 ft | 518 kts | 103° |
| 2026-05-04 14:28 | 31.50373 | 117.68766 | 33191 ft | 518 kts | 103° |
| 2026-05-04 14:28 | 31.49663 | 117.72859 | 32546 ft | 517 kts | 104° |
| 2026-05-04 14:28 | 31.48950 | 117.76972 | 31891 ft | 517 kts | 104° |
| 2026-05-04 14:29 | 31.47520 | 117.85200 | 30850 ft | 509 kts | 104° |
| 2026-05-04 14:29 | 31.46107 | 117.93250 | 29892 ft | 499 kts | 104° |
| 2026-05-04 14:30 | 31.45411 | 117.97211 | 29369 ft | 494 kts | 104° |
| 2026-05-04 14:30 | 31.44722 | 118.01140 | 28731 ft | 491 kts | 104° |
| 2026-05-04 14:30 | 31.43339 | 118.08988 | 27154 ft | 493 kts | 103° |
| 2026-05-04 14:31 | 31.42642 | 118.12928 | 26389 ft | 493 kts | 103° |
| 2026-05-04 14:31 | 31.41251 | 118.20762 | 24950 ft | 490 kts | 102° |
| 2026-05-04 14:32 | 31.39876 | 118.28488 | 23567 ft | 485 kts | 102° |
| 2026-05-04 14:32 | 31.39191 | 118.32332 | 22758 ft | 481 kts | 102° |
| 2026-05-04 14:32 | 31.38731 | 118.34907 | 22225 ft | 479 kts | 102° |
| 2026-05-04 14:32 | 31.37825 | 118.39941 | 21216 ft | 475 kts | 102° |
| 2026-05-04 14:33 | 31.37153 | 118.43672 | 20856 ft | 462 kts | 102° |
| 2026-05-04 14:33 | 31.36503 | 118.47297 | 20712 ft | 445 kts | 102° |
| 2026-05-04 14:33 | 31.35882 | 118.50761 | 20746 ft | 424 kts | 102° |
| 2026-05-04 14:33 | 31.35284 | 118.54080 | 20747 ft | 412 kts | 102° |
| 2026-05-04 14:34 | 31.34694 | 118.57342 | 20749 ft | 409 kts | 102° |
| 2026-05-04 14:34 | 31.34102 | 118.60608 | 20749 ft | 409 kts | 102° |
| 2026-05-04 14:34 | 31.33511 | 118.63861 | 20749 ft | 409 kts | 102° |
| 2026-05-04 14:34 | 31.32920 | 118.67110 | 20749 ft | 409 kts | 102° |
| 2026-05-04 14:35 | 31.32330 | 118.70349 | 20751 ft | 409 kts | 102° |
| 2026-05-04 14:35 | 31.31937 | 118.72503 | 20749 ft | 409 kts | 102° |
| 2026-05-04 14:35 | 31.31139 | 118.76868 | 20748 ft | 409 kts | 102° |
| 2026-05-04 14:35 | 31.30544 | 118.80113 | 20748 ft | 409 kts | 102° |
| 2026-05-04 14:36 | 31.30148 | 118.82276 | 20750 ft | 409 kts | 102° |
| 2026-05-04 14:36 | 31.29352 | 118.86619 | 20750 ft | 409 kts | 102° |
| 2026-05-04 14:36 | 31.28956 | 118.88778 | 20748 ft | 409 kts | 102° |
| 2026-05-04 14:36 | 31.28358 | 118.92034 | 20748 ft | 409 kts | 102° |
| 2026-05-04 14:37 | 31.27564 | 118.96351 | 20750 ft | 410 kts | 102° |
| 2026-05-04 14:37 | 31.27159 | 118.98551 | 20748 ft | 410 kts | 102° |
| 2026-05-04 14:37 | 31.26561 | 119.01806 | 20749 ft | 410 kts | 102° |
| 2026-05-04 14:37 | 31.25963 | 119.05053 | 20750 ft | 410 kts | 103° |
| 2026-05-04 14:38 | 31.25356 | 119.08320 | 20750 ft | 410 kts | 103° |
| 2026-05-04 14:38 | 31.24748 | 119.11580 | 20751 ft | 410 kts | 103° |
| 2026-05-04 14:38 | 31.24144 | 119.14830 | 20751 ft | 410 kts | 103° |
| 2026-05-04 14:38 | 31.23539 | 119.18091 | 20755 ft | 411 kts | 103° |
| 2026-05-04 14:39 | 31.22932 | 119.21359 | 20754 ft | 411 kts | 103° |
| 2026-05-04 14:39 | 31.22333 | 119.24582 | 20757 ft | 411 kts | 103° |
| 2026-05-04 14:39 | 31.21726 | 119.27849 | 20756 ft | 412 kts | 103° |
| 2026-05-04 14:40 | 31.20301 | 119.34323 | 20759 ft | 411 kts | 112° |
| 2026-05-04 14:40 | 31.19061 | 119.37312 | 20760 ft | 409 kts | 123° |
| 2026-05-04 14:40 | 31.17434 | 119.40024 | 20761 ft | 407 kts | 132° |
| 2026-05-04 14:40 | 31.15478 | 119.42396 | 20761 ft | 404 kts | 142° |
| 2026-05-04 14:41 | 31.13270 | 119.44413 | 20758 ft | 403 kts | 147° |
| 2026-05-04 14:41 | 31.11024 | 119.46367 | 20760 ft | 403 kts | 146° |
| 2026-05-04 14:41 | 31.06538 | 119.50299 | 20763 ft | 403 kts | 146° |
| 2026-05-04 14:42 | 31.02048 | 119.54235 | 20768 ft | 404 kts | 146° |
| 2026-05-04 14:42 | 30.99797 | 119.56196 | 20768 ft | 404 kts | 147° |
| 2026-05-04 14:42 | 30.97550 | 119.58146 | 20769 ft | 404 kts | 147° |
| 2026-05-04 14:43 | 30.95316 | 119.60082 | 20769 ft | 404 kts | 147° |
| 2026-05-04 14:43 | 30.93060 | 119.62038 | 20772 ft | 404 kts | 147° |
| 2026-05-04 14:43 | 30.90778 | 119.64017 | 20773 ft | 405 kts | 147° |
| 2026-05-04 14:43 | 30.88542 | 119.65957 | 20773 ft | 405 kts | 147° |
| 2026-05-04 14:44 | 30.86291 | 119.67912 | 20777 ft | 405 kts | 147° |
| 2026-05-04 14:44 | 30.84037 | 119.69869 | 20776 ft | 405 kts | 147° |
| 2026-05-04 14:44 | 30.81786 | 119.71821 | 20426 ft | 401 kts | 147° |
| 2026-05-04 14:44 | 30.79550 | 119.73762 | 19947 ft | 398 kts | 147° |
| 2026-05-04 14:45 | 30.77345 | 119.75671 | 19496 ft | 394 kts | 146° |
| 2026-05-04 14:45 | 30.75152 | 119.77569 | 19056 ft | 391 kts | 146° |
| 2026-05-04 14:45 | 30.73102 | 119.79645 | 18629 ft | 390 kts | 134° |
| 2026-05-04 14:45 | 30.71496 | 119.82186 | 18186 ft | 390 kts | 121° |
| 2026-05-04 14:46 | 30.70433 | 119.85061 | 17717 ft | 388 kts | 108° |
| 2026-05-04 14:46 | 30.69637 | 119.88041 | 17238 ft | 385 kts | 108° |
| 2026-05-04 14:46 | 30.68840 | 119.91005 | 16783 ft | 382 kts | 108° |
| 2026-05-04 14:46 | 30.68047 | 119.93927 | 16354 ft | 379 kts | 108° |
| 2026-05-04 14:47 | 30.67203 | 119.96767 | 15930 ft | 375 kts | 115° |
| 2026-05-04 14:47 | 30.65859 | 119.99369 | 15514 ft | 369 kts | 130° |
| 2026-05-04 14:47 | 30.64090 | 120.01441 | 15377 ft | 355 kts | 143° |
| 2026-05-04 14:47 | 30.62132 | 120.03105 | 15258 ft | 342 kts | 146° |
| 2026-05-04 14:48 | 30.60260 | 120.04678 | 15135 ft | 331 kts | 146° |
| 2026-05-04 14:48 | 30.58392 | 120.06250 | 14891 ft | 325 kts | 146° |
| 2026-05-04 14:48 | 30.56593 | 120.07761 | 14568 ft | 323 kts | 146° |
| 2026-05-04 14:48 | 30.54774 | 120.09284 | 14234 ft | 321 kts | 145° |
| 2026-05-04 14:49 | 30.52967 | 120.10795 | 13904 ft | 318 kts | 145° |
| 2026-05-04 14:49 | 30.51199 | 120.12273 | 13738 ft | 309 kts | 145° |
| 2026-05-04 14:49 | 30.49482 | 120.13709 | 13618 ft | 299 kts | 145° |
| 2026-05-04 14:49 | 30.47755 | 120.14959 | 13487 ft | 288 kts | 156° |
| 2026-05-04 14:50 | 30.45949 | 120.15861 | 13317 ft | 279 kts | 158° |
| 2026-05-04 14:50 | 30.44169 | 120.16746 | 13022 ft | 276 kts | 158° |
| 2026-05-04 14:50 | 30.42411 | 120.17623 | 12702 ft | 274 kts | 158° |
| 2026-05-04 14:50 | 30.40667 | 120.18497 | 12379 ft | 272 kts | 157° |
| 2026-05-04 14:51 | 30.38930 | 120.19370 | 12053 ft | 271 kts | 157° |
| 2026-05-04 14:51 | 30.37202 | 120.20240 | 11732 ft | 269 kts | 157° |
| 2026-05-04 14:51 | 30.35487 | 120.21102 | 11415 ft | 268 kts | 156° |
| 2026-05-04 14:51 | 30.33786 | 120.21958 | 11090 ft | 266 kts | 156° |
| 2026-05-04 14:52 | 30.32095 | 120.22825 | 10766 ft | 265 kts | 154° |
| 2026-05-04 14:52 | 30.30465 | 120.23750 | 10450 ft | 264 kts | 153° |
| 2026-05-04 14:52 | 30.28849 | 120.24749 | 10121 ft | 262 kts | 145° |
| 2026-05-04 14:52 | 30.27611 | 120.26242 | 9785 ft | 257 kts | 118° |
| 2026-05-04 14:53 | 30.27052 | 120.28169 | 9410 ft | 253 kts | 93° |
| 2026-05-04 14:53 | 30.27234 | 120.30169 | 9034 ft | 250 kts | 69° |
| 2026-05-04 14:53 | 30.27981 | 120.31981 | 8667 ft | 249 kts | 61° |
| 2026-05-04 14:53 | 30.28773 | 120.33754 | 8341 ft | 248 kts | 61° |
| 2026-05-04 14:54 | 30.29560 | 120.35521 | 8113 ft | 242 kts | 61° |
| 2026-05-04 14:54 | 30.30313 | 120.37212 | 7974 ft | 232 kts | 61° |
| 2026-05-04 14:54 | 30.31028 | 120.38825 | 7887 ft | 220 kts | 61° |
| 2026-05-04 14:54 | 30.31708 | 120.40360 | 7762 ft | 207 kts | 61° |
| 2026-05-04 14:55 | 30.32342 | 120.41795 | 7453 ft | 201 kts | 61° |
| 2026-05-04 14:55 | 30.32960 | 120.43240 | 7080 ft | 200 kts | 63° |
| 2026-05-04 14:55 | 30.33546 | 120.44685 | 6910 ft | 198 kts | 63° |
| 2026-05-04 14:55 | 30.34132 | 120.46141 | 6910 ft | 200 kts | 63° |
| 2026-05-04 14:56 | 30.34719 | 120.47606 | 6907 ft | 201 kts | 63° |
| 2026-05-04 14:56 | 30.35305 | 120.49071 | 6908 ft | 201 kts | 63° |
| 2026-05-04 14:56 | 30.35893 | 120.50541 | 6910 ft | 201 kts | 63° |
| 2026-05-04 14:56 | 30.36478 | 120.52004 | 6906 ft | 201 kts | 63° |
| 2026-05-04 14:57 | 30.37065 | 120.53471 | 6906 ft | 201 kts | 63° |
| 2026-05-04 14:57 | 30.37650 | 120.54936 | 6928 ft | 201 kts | 63° |
| 2026-05-04 14:57 | 30.38237 | 120.56403 | 6907 ft | 201 kts | 63° |
| 2026-05-04 14:57 | 30.38823 | 120.57874 | 6902 ft | 201 kts | 63° |
| 2026-05-04 14:58 | 30.39404 | 120.59335 | 6728 ft | 196 kts | 63° |
| 2026-05-04 14:58 | 30.39971 | 120.60767 | 6182 ft | 197 kts | 64° |
| 2026-05-04 14:58 | 30.40543 | 120.62203 | 5642 ft | 197 kts | 64° |
| 2026-05-04 14:58 | 30.41128 | 120.63646 | 5121 ft | 198 kts | 64° |
| 2026-05-04 14:59 | 30.41727 | 120.65080 | 4587 ft | 198 kts | 64° |
| 2026-05-04 14:59 | 30.42342 | 120.66505 | 4088 ft | 197 kts | 64° |
| 2026-05-04 14:59 | 30.43412 | 120.69377 | 3888 ft | 196 kts | 83° |
| 2026-05-04 15:00 | 30.43291 | 120.70905 | 3888 ft | 194 kts | 112° |
| 2026-05-04 15:00 | 30.42451 | 120.72085 | 3894 ft | 191 kts | 148° |
| 2026-05-04 15:00 | 30.41238 | 120.72701 | 3901 ft | 190 kts | 162° |
| 2026-05-04 15:01 | 30.38779 | 120.73640 | 3372 ft | 184 kts | 163° |
| 2026-05-04 15:01 | 30.37586 | 120.74088 | 3013 ft | 181 kts | 163° |
| 2026-05-04 15:01 | 30.36366 | 120.74549 | 2994 ft | 183 kts | 163° |
| 2026-05-04 15:01 | 30.35115 | 120.74728 | 2991 ft | 182 kts | 188° |
| 2026-05-04 15:02 | 30.34000 | 120.74126 | 2995 ft | 183 kts | 220° |
| 2026-05-04 15:02 | 30.33350 | 120.72876 | 3002 ft | 186 kts | 253° |
| 2026-05-04 15:02 | 30.33260 | 120.71384 | 3003 ft | 187 kts | 266° |
| 2026-05-04 15:02 | 30.33221 | 120.69880 | 3003 ft | 186 kts | 266° |
| 2026-05-04 15:03 | 30.33177 | 120.68375 | 3002 ft | 187 kts | 265° |
| 2026-05-04 15:03 | 30.33132 | 120.66873 | 2997 ft | 187 kts | 265° |
| 2026-05-04 15:03 | 30.33089 | 120.65372 | 2999 ft | 186 kts | 265° |
| 2026-05-04 15:03 | 30.33044 | 120.63874 | 3002 ft | 186 kts | 265° |
| 2026-05-04 15:04 | 30.32998 | 120.62377 | 3003 ft | 187 kts | 265° |
| 2026-05-04 15:04 | 30.32713 | 120.60930 | 3001 ft | 184 kts | 244° |
| 2026-05-04 15:04 | 30.32128 | 120.59616 | 3004 ft | 184 kts | 241° |
| 2026-05-04 15:04 | 30.31547 | 120.58305 | 3008 ft | 183 kts | 241° |
| 2026-05-04 15:05 | 30.30962 | 120.56984 | 2769 ft | 183 kts | 241° |
| 2026-05-04 15:05 | 30.30390 | 120.55686 | 2352 ft | 180 kts | 240° |
| 2026-05-04 15:05 | 30.29824 | 120.54402 | 2054 ft | 178 kts | 240° |
| 2026-05-04 15:05 | 30.29263 | 120.53132 | 1793 ft | 176 kts | 240° |
| 2026-05-04 15:06 | 30.28707 | 120.51873 | 1551 ft | 176 kts | 240° |
| 2026-05-04 15:06 | 30.28149 | 120.50613 | 1315 ft | 176 kts | 240° |
| 2026-05-04 15:06 | 30.27589 | 120.49350 | 1079 ft | 175 kts | 240° |
| 2026-05-04 15:07 | 30.26587 | 120.47079 | 655 ft | 147 kts | 241° |
| 2026-05-04 15:07 | 30.26128 | 120.46051 | 455 ft | 144 kts | 241° |
| 2026-05-04 15:07 | 30.25659 | 120.45022 | 336 ft | 146 kts | 241° |
| 2026-05-04 15:07 | 30.25212 | 120.43987 | 124 ft | 144 kts | 244° |
| 2026-05-04 15:08 | 30.24807 | 120.43077 | 62 ft | 143 kts | 245° |
| 2026-05-04 15:08 | 30.24450 | 120.42238 | 32 ft | 59 kts | 243° |
| 2026-05-04 15:08 | 30.24340 | 120.41993 | 31 ft | 22 kts | 236° |
| 2026-05-04 15:08 | 30.24235 | 120.41879 | 33 ft | 21 kts | 214° |
| 2026-05-04 15:09 | 30.24215 | 120.41862 | 32 ft | 0 kts | 217° |
| 2026-05-04 15:10 | 30.24202 | 120.41851 | 32 ft | 3 kts | 217° |
| 2026-05-04 15:10 | 30.24181 | 120.41832 | 32 ft | 5 kts | 218° |
| 2026-05-04 15:10 | 30.24111 | 120.41769 | 32 ft | 8 kts | 217° |
| 2026-05-04 15:11 | 30.24068 | 120.41733 | 32 ft | 9 kts | 216° |
| 2026-05-04 15:11 | 30.24010 | 120.41701 | 32 ft | 10 kts | 184° |
| 2026-05-04 15:11 | 30.23939 | 120.41726 | 32 ft | 12 kts | 152° |
| 2026-05-04 15:11 | 30.23892 | 120.41756 | 32 ft | 5 kts | 148° |
| 2026-05-04 15:12 | 30.23858 | 120.41787 | 31 ft | 6 kts | 139° |
| 2026-05-04 15:12 | 30.23853 | 120.41792 | 32 ft | 1 kts | 137° |
| 2026-05-04 15:12 | 30.23848 | 120.41798 | 30 ft | 1 kts | 137° |
| 2026-05-04 15:12 | 30.23839 | 120.41808 | 32 ft | 2 kts | 134° |
| 2026-05-04 15:13 | 30.23828 | 120.41824 | 32 ft | 3 kts | 129° |
| 2026-05-04 15:13 | 30.23815 | 120.41843 | 32 ft | 3 kts | 129° |
| 2026-05-04 15:13 | 30.23798 | 120.41867 | 32 ft | 4 kts | 129° |
| 2026-05-04 15:13 | 30.23792 | 120.41876 | 32 ft | 0 kts | 128° |
| 2026-05-04 15:14 | 30.23788 | 120.41881 | 31 ft | 1 kts | 128° |
| 2026-05-04 15:14 | 30.23783 | 120.41889 | 32 ft | 2 kts | 128° |
| 2026-05-04 15:14 | 30.23778 | 120.41896 | 30 ft | 0 kts | 128° |
| 2026-05-04 15:14 | 30.23772 | 120.41904 | 32 ft | 4 kts | 129° |
| 2026-05-04 15:15 | 30.23760 | 120.41921 | 32 ft | 1 kts | 130° |
| 2026-05-04 15:15 | 30.23760 | 120.41922 | 32 ft | 0 kts | 130° |